Terminal Aerodrome Forecast
Issued by NWS

Home | Current Version | Previous Version | Text Only | Print | Product List | Glossary On
Versions: 1 2 3 4 5 6 7 8 9 10 11 12 13 14 15 16 17 18 19
000
FTUS44 KMAF 271700 RRA
TAFINK
TAF
KINK 271744Z 2718/2818 03012KT 5SM -RASN BR SCT008 BKN020
     FM272000 02008KT 5SM BR BKN025
     FM280000 VRB03KT P6SM BKN050
     FM280900 25005KT P6SM SKC=

USA.gov is the U.S. government's official web portal to all federal, state and local government web resources and services.